Time;durP1;ratioP1;P1;durP2;ratioP2;P2;SDS_P1;SDS_P2;PMS_P1;PMS_P2;Temp;Humidity;BMP_temperature;BMP_pressure;BME280_temperature;BME280_humidity;BME280_pressure;Samples;Min_cycle;Max_cycle;Signal;HPM_P1;HPM_P2
2023/06/24 00:02:16;;;;;;;2.65;2.42;;;;;;;15.88;63.29;101747.59;6093470;23;20031;-77
2023/06/24 00:04:43;;;;;;;2.75;2.35;;;;;;;15.86;63.47;101748.53;6093224;23;20098;-78
2023/06/24 00:07:10;;;;;;;3.22;1.92;;;;;;;15.84;63.20;101750.34;6093417;23;20030;-77
2023/06/24 00:09:37;;;;;;;3.63;3.05;;;;;;;15.82;63.44;101765.31;6091205;23;20023;-77
2023/06/24 00:12:04;;;;;;;3.72;2.47;;;;;;;15.79;63.61;101753.06;6092821;23;20022;-76
2023/06/24 00:14:31;;;;;;;5.82;2.40;;;;;;;15.69;63.65;101754.22;6089655;23;20352;-78
2023/06/24 00:16:58;;;;;;;5.30;2.20;;;;;;;15.75;63.74;101761.97;6093324;23;20023;-76
2023/06/24 00:19:27;;;;;;;2.28;1.95;;;;;;;15.73;63.71;101758.50;6092026;23;20050;-76
2023/06/24 00:21:54;;;;;;;2.55;1.60;;;;;;;15.64;63.48;101751.66;6089249;23;20019;-76
2023/06/24 00:24:25;;;;;;;6.20;1.90;;;;;;;15.68;63.62;101760.38;6091937;23;20028;-75
2023/06/24 00:26:52;;;;;;;3.22;1.50;;;;;;;15.66;63.69;101773.56;6094346;23;20034;-78
2023/06/24 00:29:19;;;;;;;4.22;1.77;;;;;;;15.63;63.85;101773.63;6083646;23;20472;-77
2023/06/24 00:31:46;;;;;;;4.80;2.15;;;;;;;15.62;64.10;101786.81;6092981;23;20359;-79
2023/06/24 00:34:13;;;;;;;6.20;1.50;;;;;;;15.58;64.25;101777.28;6093226;23;20023;-75
2023/06/24 00:36:43;;;;;;;4.55;2.17;;;;;;;15.52;64.21;101771.25;6091900;23;20026;-76
2023/06/24 00:39:10;;;;;;;4.70;2.45;;;;;;;15.52;64.32;101780.91;6091183;23;20061;-78
2023/06/24 00:41:37;;;;;;;3.70;1.77;;;;;;;15.49;64.24;101775.72;6089818;23;20463;-78
2023/06/24 00:44:05;;;;;;;2.75;2.20;;;;;;;15.46;64.25;101779.28;6093699;23;20474;-75
2023/06/24 00:46:33;;;;;;;7.15;2.45;;;;;;;15.45;64.34;101785.47;6090495;23;20029;-78
2023/06/24 00:49:00;;;;;;;4.90;2.50;;;;;;;15.42;64.30;101788.13;6088350;23;20030;-78
2023/06/24 00:51:30;;;;;;;5.72;2.05;;;;;;;15.24;64.42;101762.22;6092292;23;20019;-77
2023/06/24 00:53:58;;;;;;;6.43;2.80;;;;;;;15.38;64.51;101794.38;6092396;23;20026;-78
2023/06/24 00:56:31;;;;;;;2.47;2.22;;;;;;;15.36;64.59;101796.19;6088408;23;20384;-77
2023/06/24 00:59:01;;;;;;;2.65;2.05;;;;;;;15.35;64.48;101798.88;6092292;23;20022;-78
2023/06/24 01:01:31;;;;;;;5.20;2.33;;;;;;;15.27;64.50;101791.97;6092425;23;20616;-76
2023/06/24 01:03:59;;;;;;;3.15;2.17;;;;;;;15.30;64.49;101809.47;6092483;23;20023;-78
2023/06/24 01:06:28;;;;;;;4.13;2.15;;;;;;;15.28;64.38;101816.53;6090343;23;20019;-77
2023/06/24 01:08:56;;;;;;;4.90;1.92;;;;;;;15.26;64.47;101821.00;6092242;23;20026;-78
2023/06/24 01:11:24;;;;;;;3.22;2.22;;;;;;;15.23;64.57;101816.66;6092040;23;20069;-77
2023/06/24 01:13:52;;;;;;;3.22;2.00;;;;;;;15.19;64.80;101814.09;6093234;23;20026;-77
2023/06/24 01:16:38;;;;;;;4.30;2.13;;;;;;;15.19;64.63;101822.00;6091169;23;20042;-78
2023/06/24 01:19:24;;;;;;;3.30;2.25;;;;;;;15.16;64.80;101817.66;6092351;23;20026;-78
2023/06/24 01:22:11;;;;;;;2.58;2.20;;;;;;;15.14;64.50;101830.00;6092723;23;20019;-77
2023/06/24 01:24:51;;;;;;;7.82;2.20;;;;;;;15.02;64.81;101812.69;6090733;23;20057;-77
2023/06/24 01:27:33;;;;;;;2.50;2.30;;;;;;;15.11;64.84;101834.44;6090045;23;20026;-78
2023/06/24 01:30:45;;;;;;;3.20;1.77;;;;;;;15.11;64.91;101829.19;6092155;23;20030;-78
2023/06/24 01:33:18;;;;;;;3.33;1.95;;;;;;;15.07;65.26;101820.50;6091485;23;20354;-78
2023/06/24 01:35:48;;;;;;;2.60;2.10;;;;;;;15.09;65.40;101823.09;6091466;23;20553;-77
2023/06/24 01:38:23;;;;;;;3.58;1.38;;;;;;;15.03;65.05;101814.44;6091371;23;20029;-77
2023/06/24 01:40:52;;;;;;;1.50;1.40;;;;;;;15.05;65.05;101820.53;6092200;23;20022;-77
2023/06/24 01:43:22;;;;;;;5.95;1.83;;;;;;;15.05;65.22;101817.00;6089838;23;20026;-77
2023/06/24 01:45:53;;;;;;;3.75;1.60;;;;;;;15.07;65.34;101823.97;6089977;23;20026;-77
2023/06/24 01:48:26;;;;;;;3.50;1.90;;;;;;;15.06;65.30;101824.03;6091470;23;20041;-77
2023/06/24 01:50:59;;;;;;;2.55;1.90;;;;;;;15.01;65.26;101826.75;6091152;23;20022;-77
2023/06/24 01:53:28;;;;;;;3.40;2.40;;;;;;;15.03;65.29;101832.84;6090181;23;20371;-77
2023/06/24 01:55:56;;;;;;;3.30;2.38;;;;;;;15.01;65.18;101837.28;6090620;23;20030;-77
2023/06/24 01:58:24;;;;;;;1.52;1.42;;;;;;;14.98;65.28;101832.06;6090514;23;20018;-77
2023/06/24 02:00:53;;;;;;;3.08;1.52;;;;;;;14.98;65.24;101836.47;6091257;23;20032;-77
2023/06/24 02:03:23;;;;;;;2.13;1.58;;;;;;;14.93;65.20;101836.56;6090508;23;20019;-77
2023/06/24 02:05:51;;;;;;;2.58;1.38;;;;;;;14.90;65.14;101836.63;6089244;23;20029;-77
2023/06/24 02:08:20;;;;;;;2.90;1.77;;;;;;;14.92;65.48;101842.72;6089308;23;20027;-77
2023/06/24 02:10:49;;;;;;;1.80;1.52;;;;;;;14.87;65.51;101833.19;6091715;23;20054;-77
2023/06/24 02:13:18;;;;;;;1.60;1.50;;;;;;;14.89;65.54;101842.78;6088016;23;20028;-77
2023/06/24 02:15:47;;;;;;;5.63;1.35;;;;;;;14.84;65.42;101834.09;6090669;23;20349;-77
2023/06/24 02:18:17;;;;;;;2.10;1.40;;;;;;;14.87;65.44;101844.56;6090847;23;20032;-78
2023/06/24 02:20:49;;;;;;;2.25;1.70;;;;;;;14.86;65.60;101848.09;6090674;23;20026;-76
2023/06/24 02:23:16;;;;;;;1.88;1.73;;;;;;;14.84;65.56;101852.53;6090658;23;20022;-77
2023/06/24 02:25:44;;;;;;;2.35;1.23;;;;;;;14.83;65.61;101856.06;6090684;23;20022;-77
2023/06/24 02:28:11;;;;;;;3.80;1.10;;;;;;;14.82;65.71;101862.19;6091820;23;20022;-76
2023/06/24 02:30:40;;;;;;;6.72;1.48;;;;;;;14.81;65.79;101856.06;6085286;23;20022;-77
2023/06/24 02:33:07;;;;;;;3.92;1.50;;;;;;;14.79;65.66;101857.00;6092446;23;20018;-77
2023/06/24 02:35:34;;;;;;;2.95;1.20;;;;;;;14.81;65.71;101863.09;6085191;23;20022;-77
2023/06/24 02:38:03;;;;;;;2.47;1.50;;;;;;;14.81;65.94;101865.72;6088048;23;20033;-77
2023/06/24 02:40:30;;;;;;;3.25;1.15;;;;;;;14.80;65.68;101870.13;6092585;23;20101;-77
2023/06/24 02:42:58;;;;;;;1.77;1.20;;;;;;;14.77;65.73;101858.78;6087812;23;20456;-77
2023/06/24 02:45:25;;;;;;;1.45;1.08;;;;;;;14.80;66.02;101871.91;6092056;23;20022;-74
2023/06/24 02:47:54;;;;;;;2.40;0.90;;;;;;;14.79;65.88;101867.50;6089592;23;20743;-77
2023/06/24 02:50:23;;;;;;;1.80;1.10;;;;;;;14.79;66.09;101870.16;6092449;23;20038;-76
2023/06/24 02:52:51;;;;;;;1.13;1.00;;;;;;;14.79;66.22;101867.50;6090986;23;20352;-77
2023/06/24 02:55:19;;;;;;;1.83;1.10;;;;;;;14.79;66.29;101872.78;6087670;23;20488;-77
2023/06/24 02:57:47;;;;;;;2.15;1.25;;;;;;;14.79;66.38;101863.13;6088658;23;20476;-76
2023/06/24 03:00:16;;;;;;;1.20;1.10;;;;;;;14.80;66.43;101877.16;6091778;23;20034;-71
2023/06/24 03:02:44;;;;;;;2.22;1.00;;;;;;;14.79;66.56;101871.00;6088983;23;20078;-71
2023/06/24 03:05:11;;;;;;;4.13;1.30;;;;;;;14.80;66.59;101875.41;6089280;23;20431;-71
2023/06/24 03:07:39;;;;;;;5.28;1.00;;;;;;;14.81;66.69;101878.88;6088078;23;20037;-71
2023/06/24 03:10:07;;;;;;;1.90;1.27;;;;;;;14.82;66.77;101872.72;6091205;23;20018;-71
2023/06/24 03:12:36;;;;;;;1.42;0.95;;;;;;;14.82;66.84;101883.25;6086806;23;20022;-71
2023/06/24 03:15:03;;;;;;;1.63;0.80;;;;;;;14.83;66.41;101882.38;6089586;23;20029;-71
2023/06/24 03:17:30;;;;;;;1.35;0.60;;;;;;;14.85;66.59;101888.44;6088838;23;20065;-71
2023/06/24 03:19:57;;;;;;;1.17;0.77;;;;;;;14.86;66.78;101879.66;6089444;23;20029;-71
2023/06/24 03:22:25;;;;;;;3.08;0.80;;;;;;;14.88;66.37;101892.78;6089493;23;20022;-71
2023/06/24 03:24:52;;;;;;;0.73;0.65;;;;;;;14.88;66.71;101883.13;6088464;23;20347;-71
2023/06/24 03:27:19;;;;;;;9.27;0.55;;;;;;;14.90;66.62;101886.59;6089946;23;20030;-71
2023/06/24 03:29:48;;;;;;;1.50;0.65;;;;;;;14.93;66.58;101886.53;6088395;23;20033;-71
2023/06/24 03:32:15;;;;;;;1.48;0.70;;;;;;;14.95;65.50;101883.91;6087739;23;20075;-71
2023/06/24 03:34:42;;;;;;;0.95;0.40;;;;;;;14.96;65.66;101886.47;6085453;23;20483;-71
2023/06/24 03:37:09;;;;;;;2.13;0.50;;;;;;;15.01;65.28;101892.53;6089064;23;20022;-71
2023/06/24 03:39:36;;;;;;;1.83;0.55;;;;;;;15.04;65.65;101891.59;6088693;23;20081;-71
2023/06/24 03:42:03;;;;;;;5.68;0.60;;;;;;;15.06;64.95;101897.72;6089744;23;20024;-71
2023/06/24 03:44:29;;;;;;;1.08;0.40;;;;;;;15.09;64.96;101905.53;6088923;23;20019;-71
2023/06/24 03:46:58;;;;;;;3.45;0.50;;;;;;;15.14;64.64;101900.19;6090309;23;20037;-71
2023/06/24 03:49:25;;;;;;;2.97;0.50;;;;;;;15.17;64.45;101902.75;6089192;23;20026;-71
2023/06/24 03:51:51;;;;;;;3.30;0.50;;;;;;;15.20;63.82;101900.94;6092902;23;20022;-71
2023/06/24 03:54:18;;;;;;;2.67;0.50;;;;;;;15.24;63.51;101907.00;6086452;23;20095;-70
2023/06/24 03:56:45;;;;;;;1.63;0.50;;;;;;;15.29;63.12;101902.53;6092103;23;20022;-71
2023/06/24 03:59:12;;;;;;;1.55;0.43;;;;;;;15.34;63.08;101903.31;6089488;23;20041;-71
2023/06/24 04:01:39;;;;;;;2.53;0.52;;;;;;;15.38;62.66;101904.97;6090317;23;20026;-71
2023/06/24 04:04:07;;;;;;;0.77;0.40;;;;;;;15.42;62.79;101898.72;6088735;23;20018;-71
2023/06/24 04:06:34;;;;;;;4.63;0.52;;;;;;;15.49;62.60;101899.47;6091228;23;20028;-71
2023/06/24 04:09:02;;;;;;;0.52;0.50;;;;;;;15.52;62.29;101902.91;6089141;23;20032;-71
2023/06/24 04:11:29;;;;;;;1.63;0.50;;;;;;;15.59;61.82;101908.91;6090931;23;20022;-71
2023/06/24 04:13:56;;;;;;;0.60;0.50;;;;;;;15.64;61.68;101908.81;6090488;23;20363;-71
2023/06/24 04:16:22;;;;;;;2.28;0.55;;;;;;;15.69;62.04;101909.63;6089621;23;20025;-70
2023/06/24 04:18:49;;;;;;;1.50;0.40;;;;;;;15.74;62.01;101918.31;6091343;23;20028;-71
2023/06/24 04:21:18;;;;;;;3.53;0.50;;;;;;;15.79;61.86;101908.50;6090609;23;20022;-71
2023/06/24 04:23:45;;;;;;;1.88;0.40;;;;;;;15.85;61.50;101913.66;6091242;23;20026;-71
2023/06/24 04:26:12;;;;;;;0.93;0.50;;;;;;;15.91;61.59;101916.16;6088843;23;20030;-71
2023/06/24 04:28:39;;;;;;;1.10;0.50;;;;;;;16.00;60.87;101911.59;6088267;23;20033;-71
2023/06/24 04:31:06;;;;;;;2.25;0.55;;;;;;;16.07;60.58;101911.38;6090652;23;20022;-71
2023/06/24 04:33:33;;;;;;;3.13;0.43;;;;;;;16.14;59.85;101906.84;6091819;23;20028;-72
2023/06/24 04:36:00;;;;;;;0.80;0.40;;;;;;;16.22;58.92;101898.75;6089865;23;20029;-72
2023/06/24 04:38:28;;;;;;;0.50;0.40;;;;;;;16.28;58.75;101904.75;6092419;23;20106;-73
2023/06/24 04:40:57;;;;;;;2.15;0.47;;;;;;;16.34;57.97;101896.69;6091790;23;20029;-71
2023/06/24 04:43:24;;;;;;;1.23;0.40;;;;;;;16.43;57.97;101903.50;6090297;23;20483;-72
2023/06/24 04:45:50;;;;;;;1.77;0.32;;;;;;;16.51;57.69;101901.56;6090596;23;20022;-72
2023/06/24 04:48:17;;;;;;;2.58;0.30;;;;;;;16.60;56.90;101905.72;6090337;23;20027;-71
2023/06/24 04:50:44;;;;;;;1.40;0.30;;;;;;;16.68;56.54;101902.88;6090472;23;20018;-72
2023/06/24 04:53:11;;;;;;;0.75;0.30;;;;;;;16.76;55.41;101915.03;6090057;23;20022;-72
2023/06/24 04:55:39;;;;;;;2.33;0.40;;;;;;;16.83;56.05;101913.94;6091528;23;20026;-71
2023/06/24 04:58:06;;;;;;;4.18;0.22;;;;;;;16.95;55.10;101917.16;6089811;23;20028;-72
2023/06/24 05:00:33;;;;;;;2.35;0.30;;;;;;;17.04;54.07;101916.91;6090141;23;20026;-72
2023/06/24 05:03:00;;;;;;;2.25;0.20;;;;;;;17.16;53.12;101918.34;6090417;23;20482;-71
2023/06/24 05:05:27;;;;;;;0.82;0.30;;;;;;;17.26;53.50;101917.19;6090653;23;20034;-72
2023/06/24 05:07:54;;;;;;;1.48;0.35;;;;;;;17.33;52.48;101928.44;6086669;23;20022;-72
2023/06/24 05:10:21;;;;;;;1.83;0.30;;;;;;;17.38;52.18;101922.09;6089725;23;20022;-72
2023/06/24 05:12:49;;;;;;;2.25;0.30;;;;;;;17.48;51.03;101925.38;6089024;23;20025;-72
2023/06/24 05:15:16;;;;;;;1.92;0.30;;;;;;;17.57;50.82;101919.81;6088534;23;20065;-71
2023/06/24 05:17:43;;;;;;;2.33;0.30;;;;;;;17.70;50.57;101918.53;6087334;23;20026;-72
2023/06/24 05:20:11;;;;;;;1.08;0.43;;;;;;;17.80;49.76;101916.50;6083671;23;20026;-72
2023/06/24 05:22:38;;;;;;;6.07;0.65;;;;;;;17.91;49.82;101917.06;6087971;23;20029;-70
2023/06/24 05:25:06;;;;;;;1.02;0.32;;;;;;;17.99;49.99;101919.47;6087722;23;20348;-71
2023/06/24 05:27:33;;;;;;;2.85;0.70;;;;;;;18.07;49.12;101913.91;6088343;23;20031;-71
2023/06/24 05:30:01;;;;;;;0.30;0.20;;;;;;;18.14;48.75;101900.47;6088858;23;20423;-72
2023/06/24 05:32:28;;;;;;;5.85;0.35;;;;;;;18.23;48.20;101917.81;6088627;23;20022;-71
2023/06/24 05:34:55;;;;;;;1.77;0.20;;;;;;;18.30;48.08;101907.88;6088546;23;20027;-71
2023/06/24 05:37:21;;;;;;;1.58;0.20;;;;;;;18.26;46.95;101893.91;6087409;23;20022;-72
2023/06/24 05:39:48;;;;;;;1.10;0.30;;;;;;;18.42;47.63;101904.84;6086522;23;20026;-71
2023/06/24 05:42:15;;;;;;;1.60;0.20;;;;;;;18.48;47.32;101907.28;6088906;23;20022;-69
2023/06/24 05:44:43;;;;;;;0.77;0.20;;;;;;;18.54;46.65;101899.13;6087323;23;20037;-71
2023/06/24 05:47:15;;;;;;;2.58;0.30;;;;;;;18.62;46.16;101891.81;6089729;23;20042;-71
2023/06/24 05:49:42;;;;;;;2.08;0.20;;;;;;;18.66;46.10;101890.78;6088599;23;20175;-71
2023/06/24 05:52:08;;;;;;;0.40;0.20;;;;;;;18.77;46.62;101886.94;6090604;23;20022;-70
2023/06/24 05:54:35;;;;;;;1.83;0.20;;;;;;;18.85;46.74;101896.34;6089155;23;20347;-70
2023/06/24 05:57:05;;;;;;;2.63;0.20;;;;;;;18.93;46.05;101889.91;6089944;23;20028;-70
2023/06/24 05:59:32;;;;;;;0.60;0.15;;;;;;;18.98;45.90;101891.47;6089977;23;20097;-70
2023/06/24 06:02:01;;;;;;;4.03;0.40;;;;;;;19.02;45.93;101882.50;6089863;23;20028;-70
2023/06/24 06:04:29;;;;;;;0.45;0.20;;;;;;;19.06;44.70;101886.75;6089760;23;20032;-71
2023/06/24 06:06:56;;;;;;;5.82;0.40;;;;;;;19.09;44.51;101889.28;6088484;23;20028;-71
2023/06/24 06:09:23;;;;;;;0.68;0.20;;;;;;;19.13;44.50;101884.75;6090073;23;20040;-70
2023/06/24 06:11:50;;;;;;;0.77;0.30;;;;;;;19.17;44.09;101890.81;6084618;23;20028;-70
2023/06/24 06:14:17;;;;;;;2.40;0.20;;;;;;;19.10;44.53;101874.28;6086003;23;20352;-71
2023/06/24 06:16:44;;;;;;;1.33;0.22;;;;;;;19.26;43.94;101901.06;6090648;23;20022;-70
2023/06/24 06:19:11;;;;;;;1.35;0.28;;;;;;;19.29;43.79;101895.63;6090296;23;20204;-70
2023/06/24 06:21:40;;;;;;;2.45;0.90;;;;;;;19.33;43.13;101895.47;6089094;23;20033;-70
2023/06/24 06:24:07;;;;;;;4.13;0.35;;;;;;;19.38;43.26;101895.31;6089544;23;20030;-70
2023/06/24 06:26:34;;;;;;;1.52;0.22;;;;;;;19.42;42.97;101896.91;6088154;23;20032;-70
2023/06/24 06:29:01;;;;;;;0.60;0.20;;;;;;;19.43;43.10;101885.38;6090016;23;20359;-70
2023/06/24 06:31:28;;;;;;;2.00;0.30;;;;;;;19.45;43.49;101893.28;6089561;23;20356;-70
2023/06/24 06:33:55;;;;;;;0.40;0.20;;;;;;;19.46;43.61;101885.28;6086958;23;20029;-70
2023/06/24 06:36:22;;;;;;;3.13;0.30;;;;;;;19.50;43.78;101886.91;6086178;23;20026;-70
2023/06/24 06:38:50;;;;;;;5.82;0.30;;;;;;;19.54;43.85;101890.28;6088861;23;20023;-70
2023/06/24 06:41:17;;;;;;;0.98;0.20;;;;;;;19.54;43.30;101877.91;6086599;23;20022;-70
2023/06/24 06:43:44;;;;;;;1.58;0.20;;;;;;;19.57;43.12;101879.56;6090699;23;20030;-70
2023/06/24 06:46:11;;;;;;;2.05;0.30;;;;;;;19.58;42.98;101869.81;6088747;23;20050;-71
2023/06/24 06:48:38;;;;;;;3.05;0.40;;;;;;;19.59;42.55;101877.72;6089781;23;20416;-70
2023/06/24 06:51:07;;;;;;;1.08;0.30;;;;;;;19.63;42.80;101874.03;6089444;23;20068;-70
2023/06/24 06:53:34;;;;;;;1.50;0.28;;;;;;;19.66;42.78;101875.72;6089008;23;20038;-70
2023/06/24 06:56:02;;;;;;;1.27;0.30;;;;;;;19.71;42.16;101877.28;6089238;23;20071;-70
2023/06/24 06:58:29;;;;;;;0.85;0.30;;;;;;;19.77;42.24;101881.47;6089225;23;20022;-70
2023/06/24 07:01:01;;;;;;;3.17;0.28;;;;;;;19.85;41.60;101876.75;6083538;23;20030;-71
2023/06/24 07:03:28;;;;;;;2.53;0.20;;;;;;;19.92;42.07;101872.94;6085993;23;20030;-69
2023/06/24 07:05:55;;;;;;;0.82;0.20;;;;;;;20.00;42.43;101873.47;6061001;23;20093;-69
2023/06/24 07:08:22;;;;;;;2.65;0.40;;;;;;;20.07;42.02;101878.53;6089475;23;20101;-69
2023/06/24 07:10:49;;;;;;;5.25;0.20;;;;;;;20.13;42.24;101875.63;6091844;23;20041;-69
2023/06/24 07:13:17;;;;;;;1.02;0.20;;;;;;;20.20;42.01;101877.09;6089285;23;20033;-70
2023/06/24 07:15:44;;;;;;;2.97;0.20;;;;;;;20.27;41.07;101880.38;6090289;23;20033;-69
2023/06/24 07:18:11;;;;;;;1.40;0.30;;;;;;;20.37;40.70;101876.38;6088836;23;20029;-69
2023/06/24 07:20:38;;;;;;;7.50;0.40;;;;;;;20.48;41.52;101881.25;6087681;23;20474;-69
2023/06/24 07:23:05;;;;;;;2.38;0.20;;;;;;;20.56;41.63;101876.53;6090898;23;20029;-68
2023/06/24 07:25:32;;;;;;;5.30;0.30;;;;;;;20.69;41.10;101872.41;6093762;23;20083;-69
2023/06/24 07:27:59;;;;;;;2.05;0.20;;;;;;;20.82;41.61;101878.91;6092348;23;20022;-69
2023/06/24 07:30:27;;;;;;;1.23;0.20;;;;;;;20.93;41.10;101870.47;6093066;23;20481;-69
2023/06/24 07:32:54;;;;;;;3.45;0.63;;;;;;;21.03;40.77;101876.22;6089384;23;20404;-70
2023/06/24 07:35:21;;;;;;;0.50;0.20;;;;;;;21.11;40.86;101874.09;6092577;23;20018;-69
2023/06/24 07:37:48;;;;;;;1.50;0.55;;;;;;;21.22;40.81;101876.25;6091798;23;20551;-68
2023/06/24 07:40:15;;;;;;;1.92;0.10;;;;;;;21.29;40.08;101878.56;6091375;23;20348;-69
2023/06/24 07:42:42;;;;;;;0.40;0.20;;;;;;;21.34;40.75;101873.03;6091683;23;20098;-69
2023/06/24 07:45:10;;;;;;;1.15;0.20;;;;;;;21.47;40.29;101876.03;6093105;23;20018;-69
2023/06/24 07:47:38;;;;;;;1.70;0.20;;;;;;;21.54;39.52;101866.81;6094271;23;20506;-69
2023/06/24 07:50:06;;;;;;;2.13;0.20;;;;;;;21.63;40.14;101876.16;6089268;23;20026;-69
2023/06/24 07:52:33;;;;;;;1.35;0.20;;;;;;;21.73;39.52;101872.13;6092462;23;20026;-69
2023/06/24 07:55:00;;;;;;;1.50;0.20;;;;;;;21.82;39.19;101874.34;6092537;23;20022;-69
2023/06/24 07:57:28;;;;;;;2.38;0.20;;;;;;;21.91;38.93;101859.72;6090699;23;20098;-69
2023/06/24 07:59:55;;;;;;;0.68;0.20;;;;;;;22.02;38.35;101865.38;6091293;23;20034;-69
2023/06/24 08:02:23;;;;;;;1.27;0.30;;;;;;;22.07;38.68;101855.38;6087522;23;20027;-70
2023/06/24 08:04:52;;;;;;;0.63;0.20;;;;;;;22.19;37.95;101862.78;6089739;23;20056;-70
2023/06/24 08:07:19;;;;;;;5.15;0.30;;;;;;;22.27;38.57;101867.72;6088609;23;20077;-70
2023/06/24 08:09:46;;;;;;;2.63;0.20;;;;;;;22.33;38.90;101861.25;6090004;23;20026;-71
2023/06/24 08:12:12;;;;;;;1.25;0.30;;;;;;;22.38;38.26;101860.06;6090549;23;20032;-71
2023/06/24 08:14:39;;;;;;;1.08;0.20;;;;;;;22.44;36.83;101859.75;6089853;23;20097;-70
2023/06/24 08:17:06;;;;;;;2.97;0.20;;;;;;;22.51;37.04;101854.97;6091046;23;20029;-71
2023/06/24 08:19:33;;;;;;;0.30;0.10;;;;;;;22.55;37.62;101856.53;6090108;23;20032;-70
2023/06/24 08:22:02;;;;;;;2.38;0.20;;;;;;;22.62;37.38;101857.94;6087270;23;20029;-71
2023/06/24 08:24:29;;;;;;;0.32;0.20;;;;;;;22.68;37.84;101862.97;6090852;23;20022;-70
2023/06/24 08:26:56;;;;;;;0.45;0.25;;;;;;;22.75;37.95;101857.31;6090120;23;20018;-70
2023/06/24 08:29:23;;;;;;;4.55;0.20;;;;;;;22.82;37.41;101864.03;6091642;23;20352;-70
2023/06/24 08:31:50;;;;;;;0.88;0.20;;;;;;;22.87;36.57;101872.63;6090561;23;20078;-70
2023/06/24 08:34:16;;;;;;;1.55;0.40;;;;;;;22.96;37.66;101866.00;6091345;23;20023;-71
2023/06/24 08:36:43;;;;;;;0.65;0.20;;;;;;;23.01;37.68;101861.28;6091709;23;20089;-71
2023/06/24 08:39:12;;;;;;;1.48;0.20;;;;;;;23.06;37.58;101867.25;6089331;23;20106;-71
2023/06/24 08:41:39;;;;;;;1.95;0.10;;;;;;;23.12;36.47;101862.44;6086702;23;20133;-72
2023/06/24 08:44:05;;;;;;;0.80;0.20;;;;;;;23.18;36.98;101860.38;6088235;23;20738;-72
2023/06/24 08:46:35;;;;;;;0.50;0.30;;;;;;;23.24;37.07;101860.03;6074796;23;20325;-71
2023/06/24 08:49:11;;;;;;;2.30;0.30;;;;;;;23.29;36.92;101858.00;6092205;23;20081;-71
2023/06/24 08:51:42;;;;;;;2.95;0.20;;;;;;;23.34;36.94;101855.94;6088744;23;20026;-71
2023/06/24 08:54:11;;;;;;;6.05;0.73;;;;;;;23.40;36.21;101855.59;6089820;23;20081;-71
2023/06/24 08:56:39;;;;;;;0.77;0.20;;;;;;;23.46;36.25;101863.25;6089701;23;20961;-71
2023/06/24 08:59:07;;;;;;;0.95;0.20;;;;;;;23.53;36.21;101864.63;6090822;23;20026;-72
2023/06/24 09:01:33;;;;;;;7.53;0.30;;;;;;;23.58;36.59;101859.91;6082659;23;20037;-71
2023/06/24 09:04:00;;;;;;;1.77;0.28;;;;;;;23.64;36.78;101864.03;6084713;23;20033;-70
2023/06/24 09:06:27;;;;;;;2.05;0.65;;;;;;;23.71;36.60;101864.59;6088357;23;20029;-69
2023/06/24 09:08:55;;;;;;;0.98;0.20;;;;;;;23.76;35.66;101867.84;6085924;23;20022;-68
2023/06/24 09:11:27;;;;;;;2.05;0.20;;;;;;;23.82;36.17;101858.63;6088804;23;20022;-70
2023/06/24 09:13:57;;;;;;;3.90;0.20;;;;;;;23.87;36.37;101860.09;6086282;23;20022;-68
2023/06/24 09:16:25;;;;;;;4.85;0.20;;;;;;;23.91;36.02;101861.66;6088460;23;20330;-69
2023/06/24 09:18:53;;;;;;;0.50;0.13;;;;;;;23.96;34.53;101859.59;6085993;23;20022;-69
2023/06/24 09:21:25;;;;;;;0.85;0.25;;;;;;;24.00;35.41;101861.13;6085940;23;20037;-68
2023/06/24 09:23:54;;;;;;;2.97;0.20;;;;;;;23.99;35.44;101839.84;6088580;23;20094;-70
2023/06/24 09:26:24;;;;;;;1.15;0.20;;;;;;;24.11;35.11;101843.63;6088461;23;20018;-72
2023/06/24 09:28:52;;;;;;;1.10;0.20;;;;;;;24.15;35.63;101847.81;6086902;23;20027;-69
2023/06/24 09:31:20;;;;;;;0.47;0.20;;;;;;;24.21;34.87;101850.13;6087285;23;20446;-69
2023/06/24 09:33:47;;;;;;;1.08;0.20;;;;;;;24.26;34.25;101845.38;6085927;23;20076;-68
2023/06/24 09:36:15;;;;;;;1.02;0.40;;;;;;;24.26;34.97;101848.06;6087515;23;20037;-69
2023/06/24 09:38:44;;;;;;;0.95;0.25;;;;;;;24.32;34.76;101847.69;6088373;23;20023;-69
2023/06/24 09:41:11;;;;;;;1.10;0.20;;;;;;;24.36;34.57;101856.38;6086229;23;20030;-70
2023/06/24 09:43:40;;;;;;;0.40;0.20;;;;;;;24.40;35.25;101847.22;6087859;23;20030;-70
2023/06/24 09:46:08;;;;;;;2.78;0.20;;;;;;;24.44;35.54;101854.13;6086821;23;20018;-69
2023/06/24 09:48:35;;;;;;;2.15;0.20;;;;;;;24.47;34.92;101851.28;6085933;23;20082;-70
2023/06/24 09:51:04;;;;;;;2.58;0.20;;;;;;;24.53;35.26;101850.03;6086392;23;20057;-70
2023/06/24 09:53:32;;;;;;;0.30;0.20;;;;;;;24.56;34.39;101849.84;6088239;23;20133;-70
2023/06/24 09:56:01;;;;;;;0.60;0.20;;;;;;;24.60;35.12;101854.09;6084952;23;20023;-70
2023/06/24 09:58:32;;;;;;;3.25;0.45;;;;;;;24.64;35.54;101842.25;6089374;23;20025;-70
2023/06/24 10:01:03;;;;;;;0.30;0.20;;;;;;;24.67;35.28;101839.38;6088479;23;20030;-71
2023/06/24 10:03:34;;;;;;;17.75;0.40;;;;;;;24.72;35.52;101841.78;6086918;23;20022;-71
2023/06/24 10:06:01;;;;;;;1.55;0.32;;;;;;;24.78;35.23;101834.25;6087812;23;20058;-70
2023/06/24 10:08:29;;;;;;;0.70;0.30;;;;;;;24.82;34.90;101837.59;6081740;23;20081;-70
2023/06/24 10:10:56;;;;;;;1.25;0.20;;;;;;;24.86;34.23;101833.78;6086392;23;20716;-71
2023/06/24 10:13:24;;;;;;;0.30;0.20;;;;;;;24.88;34.54;101831.88;6085596;23;20018;-70
2023/06/24 10:15:51;;;;;;;0.20;0.10;;;;;;;24.87;34.74;101823.00;6083019;23;20018;-70
2023/06/24 10:18:36;;;;;;;3.25;0.20;;;;;;;24.89;34.38;101821.06;6086571;23;20033;-71
2023/06/24 10:21:03;;;;;;;2.40;0.20;;;;;;;24.90;33.95;101814.78;6087848;23;20033;-70
2023/06/24 10:23:32;;;;;;;1.52;0.30;;;;;;;24.89;33.83;101807.72;6085938;23;20022;-71
2023/06/24 10:25:59;;;;;;;0.85;0.40;;;;;;;24.95;34.78;101816.31;6087913;23;20023;-71
2023/06/24 10:28:27;;;;;;;2.10;0.28;;;;;;;24.98;33.90;101816.13;6087656;23;20824;-70
2023/06/24 10:30:57;;;;;;;0.10;0.10;;;;;;;25.02;34.24;101814.97;6090068;23;20026;-70
2023/06/24 10:33:25;;;;;;;0.45;0.20;;;;;;;25.02;34.15;101806.97;6087243;23;20093;-70
2023/06/24 10:35:53;;;;;;;0.20;0.10;;;;;;;25.05;33.90;101809.44;6088857;23;20058;-70
2023/06/24 10:38:20;;;;;;;0.95;0.10;;;;;;;25.06;33.33;101805.81;6086809;23;20029;-71
2023/06/24 10:40:50;;;;;;;1.15;0.20;;;;;;;25.07;34.06;101812.84;6089421;23;20025;-71
2023/06/24 10:43:29;;;;;;;0.63;0.20;;;;;;;25.08;33.38;101806.56;6090459;23;20407;-71
2023/06/24 10:45:57;;;;;;;0.20;0.20;;;;;;;25.08;33.76;101817.25;6086413;23;20027;-70
2023/06/24 10:48:24;;;;;;;2.25;0.22;;;;;;;25.08;34.91;101814.59;6089245;23;20464;-70
2023/06/24 10:50:53;;;;;;;2.75;0.30;;;;;;;25.08;34.09;101807.44;6086185;23;20613;-71
2023/06/24 10:53:20;;;;;;;0.30;0.20;;;;;;;25.02;34.06;101796.28;6089544;23;20030;-71
2023/06/24 10:55:47;;;;;;;1.77;0.30;;;;;;;25.08;33.82;101809.25;6090045;23;20097;-71
2023/06/24 10:58:15;;;;;;;0.82;0.30;;;;;;;25.08;33.81;101803.91;6089452;23;20032;-71
2023/06/24 11:00:45;;;;;;;0.63;0.30;;;;;;;25.09;34.00;101803.78;6090017;23;20478;-71
2023/06/24 11:03:14;;;;;;;3.50;0.20;;;;;;;25.10;34.06;101809.97;6089510;23;20026;-70
2023/06/24 11:05:41;;;;;;;0.40;0.30;;;;;;;25.09;33.98;101800.25;6090691;23;20029;-71
2023/06/24 11:08:11;;;;;;;3.47;0.30;;;;;;;25.10;34.70;101794.81;6093066;23;20073;-71
2023/06/24 11:10:45;;;;;;;2.75;0.20;;;;;;;25.12;34.92;101802.72;6089521;23;20113;-71
2023/06/24 11:13:13;;;;;;;1.17;0.50;;;;;;;25.12;35.17;101800.06;6090656;23;20030;-71
2023/06/24 11:15:41;;;;;;;0.40;0.30;;;;;;;25.15;34.90;101804.38;6090129;23;20029;-71
2023/06/24 11:18:10;;;;;;;2.60;0.20;;;;;;;25.16;34.95;101795.41;6090997;23;20022;-72
2023/06/24 11:20:38;;;;;;;0.47;0.30;;;;;;;25.16;34.30;101792.72;6090403;23;20045;-72
2023/06/24 11:23:08;;;;;;;1.00;0.30;;;;;;;25.17;34.78;101794.47;6089418;23;20058;-71
2023/06/24 11:25:40;;;;;;;1.45;0.85;;;;;;;25.17;35.08;101795.31;6090630;23;20030;-71
2023/06/24 11:28:12;;;;;;;0.57;0.30;;;;;;;25.13;35.15;101777.69;6090977;23;20026;-71
2023/06/24 11:30:39;;;;;;;1.40;0.35;;;;;;;25.17;35.87;101794.47;6091704;23;20029;-72